SBTT/TBT METAR and TAF weather

Enter ICAO airport designator
Station Type Date Time Source
SBTT METAR 2020/08/10 22:00 UTC NOAA

SBTT 102200Z 34002KT 9999 FEW020 30/23 Q1009


Station Type Date Time Source
SBTT Decoded METAR 2020/08/10 22:00 UTC NOAA

Tabatinga, Brazil (SBTT) 03-40S 069-40W
Aug 10, 2020 - 06:00 PM EDT / 2020.08.10 2200 UTC
Wind: from the NNW (340 degrees) at 2 MPH (2 KT):0
Visibility: greater than 7 mile(s):0
Sky conditions: mostly clear
Temperature: 86 F (30 C)
Heat index: 93.4 F (34.1 C):1
Dew Point: 73 F (23 C)
Relative Humidity: 66%
Pressure (altimeter): 29.80 in. Hg (1009 hPa)
ob: SBTT 102200Z 34002KT 9999 FEW020 30/23 Q1009
cycle: 22

Station Type Date Time Source
SBTT TAF 2020/08/10 18:54 UTC NOAA

TAF SBTT 101500Z 1018/1118 16005KT 9999 SCT015 TN23/1108Z TX29/1118Z
BECMG 1102/1104 00000KT CAVOK
RMK PCZ

Example: see airport list